TimeEDT,TemperatureF,Dew PointF,Humidity,Sea Level PressureIn,VisibilityMPH,Wind Direction,Wind SpeedMPH,Gust SpeedMPH,PrecipitationIn,Events,Conditions,WindDirDegrees,DateUTC
12:15 AM,58.6,44.6,60,30.10,10.0,SSE,4.6,-,N/A,,Mostly Cloudy,150,2013-04-28 04:15:00
12:35 AM,58.6,45.1,61,30.09,10.0,SE,6.9,-,N/A,,Light Drizzle,140,2013-04-28 04:35:00
12:55 AM,58.8,45.5,61,30.09,10.0,ESE,5.8,-,N/A,,Overcast,120,2013-04-28 04:55:00
1:15 AM,58.5,45.5,62,30.07,10.0,ESE,6.9,-,N/A,,Overcast,110,2013-04-28 05:15:00
1:35 AM,58.5,46.2,64,30.06,10.0,ESE,5.8,-,N/A,,Overcast,110,2013-04-28 05:35:00
1:55 AM,58.8,46.9,65,30.06,10.0,ESE,6.9,-,N/A,,Overcast,120,2013-04-28 05:55:00
2:15 AM,58.8,47.3,66,30.04,10.0,ESE,6.9,-,N/A,,Overcast,120,2013-04-28 06:15:00
2:35 AM,58.8,47.3,66,30.03,10.0,SE,8.1,-,N/A,,Overcast,130,2013-04-28 06:35:00
2:55 AM,58.8,47.3,66,30.02,10.0,ESE,9.2,-,N/A,,Overcast,120,2013-04-28 06:55:00
3:15 AM,58.3,47.5,67,30.01,10.0,SE,8.1,-,N/A,,Overcast,130,2013-04-28 07:15:00
3:35 AM,58.5,47.7,67,30.00,10.0,SE,10.4,-,N/A,,Overcast,130,2013-04-28 07:35:00
3:55 AM,58.8,47.7,66,30.00,10.0,SE,10.4,-,N/A,,Overcast,130,2013-04-28 07:55:00
4:15 AM,59.0,47.7,66,29.99,10.0,SE,9.2,-,N/A,,Overcast,130,2013-04-28 08:15:00
4:35 AM,59.2,48.2,67,29.98,10.0,SE,9.2,-,N/A,,Overcast,130,2013-04-28 08:35:00
4:55 AM,59.0,48.2,67,29.98,10.0,SE,8.1,-,N/A,,Overcast,140,2013-04-28 08:55:00
5:15 AM,58.8,48.6,69,29.98,10.0,SSE,10.4,-,N/A,Rain,Light Rain,150,2013-04-28 09:15:00
5:35 AM,57.6,50.0,76,29.98,7.0,SE,8.1,-,N/A,Rain,Rain,140,2013-04-28 09:35:00
5:55 AM,56.3,50.9,82,29.97,5.0,SE,8.1,-,N/A,Rain,Light Rain,140,2013-04-28 09:55:00
6:15 AM,55.2,50.7,85,29.97,5.0,SE,8.1,-,N/A,Rain,Rain,140,2013-04-28 10:15:00
6:35 AM,54.1,50.2,86,29.97,5.0,SE,5.8,-,N/A,Rain,Rain,130,2013-04-28 10:35:00
7:15 AM,52.5,48.9,88,29.97,7.0,SE,5.8,-,N/A,Rain,Rain,130,2013-04-28 11:15:00
7:35 AM,52.0,48.4,88,29.97,7.0,SE,5.8,-,N/A,Rain,Rain,130,2013-04-28 11:35:00
7:55 AM,51.6,48.2,88,29.97,7.0,ESE,5.8,-,N/A,Rain,Rain,120,2013-04-28 11:55:00
8:15 AM,51.6,48.2,88,29.97,7.0,ESE,6.9,-,N/A,Rain,Rain,120,2013-04-28 12:15:00
8:35 AM,52.0,48.6,88,29.98,7.0,SE,6.9,-,N/A,Rain,Rain,130,2013-04-28 12:35:00
9:15 AM,53.1,49.5,88,29.96,10.0,SSE,8.1,-,N/A,Rain,Light Rain,150,2013-04-28 13:15:00
9:35 AM,53.8,50.2,88,29.95,10.0,SE,8.1,-,N/A,Rain,Light Rain,140,2013-04-28 13:35:00
9:55 AM,54.7,50.9,87,29.95,10.0,SSE,8.1,-,N/A,Rain,Light Rain,150,2013-04-28 13:55:00
10:15 AM,55.4,51.3,86,29.95,10.0,SSE,9.2,-,N/A,,Overcast,150,2013-04-28 14:15:00
10:35 AM,56.3,51.8,85,29.96,10.0,SSE,12.7,-,N/A,,Overcast,160,2013-04-28 14:35:00
10:55 AM,57.4,52.3,83,29.96,10.0,South,13.8,-,N/A,,Overcast,170,2013-04-28 14:55:00
11:15 AM,57.9,52.5,82,29.95,10.0,SSE,10.4,-,N/A,,Overcast,160,2013-04-28 15:15:00
11:35 AM,58.3,52.9,82,29.95,7.0,SSE,11.5,-,N/A,,Overcast,160,2013-04-28 15:35:00
11:55 AM,58.6,53.2,82,29.95,10.0,South,15.0,18.4,N/A,,Overcast,170,2013-04-28 15:55:00
12:15 PM,60.1,53.8,80,29.95,10.0,South,12.7,19.6,N/A,,Overcast,170,2013-04-28 16:15:00
12:35 PM,61.0,54.0,78,29.94,10.0,SSE,12.7,-,N/A,,Overcast,160,2013-04-28 16:35:00
12:55 PM,61.0,53.8,77,29.94,10.0,South,12.7,-,N/A,,Overcast,170,2013-04-28 16:55:00
1:15 PM,60.4,53.8,79,29.93,5.0,South,8.1,-,N/A,Rain,Rain,180,2013-04-28 17:15:00
1:35 PM,59.9,54.5,82,29.93,5.0,South,6.9,-,N/A,Rain,Rain,170,2013-04-28 17:35:00
1:55 PM,60.6,55.0,82,29.92,7.0,South,10.4,-,N/A,Rain,Light Rain,180,2013-04-28 17:55:00
2:15 PM,61.0,55.2,81,29.91,10.0,SSE,11.5,-,N/A,Rain,Light Rain,160,2013-04-28 18:15:00
2:35 PM,60.4,55.0,82,29.90,10.0,SSE,9.2,-,N/A,Rain,Light Rain,150,2013-04-28 18:35:00
2:55 PM,60.3,55.0,83,29.90,10.0,SSE,8.1,-,N/A,,Overcast,150,2013-04-28 18:55:00
3:15 PM,61.9,55.8,80,29.89,10.0,SSE,9.2,-,N/A,,Overcast,150,2013-04-28 19:15:00
3:35 PM,62.4,55.4,78,29.88,10.0,SSE,9.2,-,N/A,,Overcast,150,2013-04-28 19:35:00
3:55 PM,62.6,55.9,79,29.88,10.0,SSE,9.2,-,N/A,Rain,Rain,160,2013-04-28 19:55:00
4:15 PM,63.1,55.9,77,29.87,10.0,SSE,9.2,-,N/A,,Overcast,150,2013-04-28 20:15:00
4:35 PM,64.0,55.9,75,29.87,10.0,SSE,9.2,-,N/A,,Overcast,150,2013-04-28 20:35:00
4:55 PM,64.8,56.1,74,29.86,10.0,SE,11.5,-,N/A,,Overcast,140,2013-04-28 20:55:00
5:15 PM,66.4,56.1,69,29.85,10.0,South,12.7,-,N/A,,Mostly Cloudy,170,2013-04-28 21:15:00
5:35 PM,66.9,55.6,67,29.85,10.0,South,10.4,-,N/A,,Scattered Clouds,170,2013-04-28 21:35:00
5:55 PM,66.4,55.4,68,29.84,10.0,SE,9.2,-,N/A,,Mostly Cloudy,140,2013-04-28 21:55:00
6:15 PM,65.7,55.0,69,29.84,10.0,SE,9.2,-,N/A,Rain,Light Rain,140,2013-04-28 22:15:00
6:35 PM,64.0,55.6,74,29.84,10.0,SE,5.8,-,N/A,Rain,Light Rain,140,2013-04-28 22:35:00
6:55 PM,62.4,56.1,80,29.86,3.0,SE,10.4,-,N/A,Rain,Rain,130,2013-04-28 22:55:00
7:15 PM,60.8,55.8,83,29.85,7.0,SE,9.2,-,N/A,Rain,Light Rain,140,2013-04-28 23:15:00
7:35 PM,60.1,55.4,85,29.85,10.0,SE,8.1,-,N/A,,Overcast,130,2013-04-28 23:35:00
7:55 PM,59.7,55.4,86,29.85,7.0,SSE,8.1,-,N/A,Rain,Light Rain,160,2013-04-28 23:55:00
8:15 PM,59.4,55.0,86,29.87,7.0,South,13.8,-,N/A,Rain,Rain,190,2013-04-29 00:15:00
8:35 PM,59.9,55.2,84,29.87,10.0,South,10.4,-,N/A,Thunderstorm,Thunderstorm,170,2013-04-29 00:35:00
8:55 PM,58.8,54.7,86,29.86,10.0,SSE,6.9,-,N/A,Rain,Light Rain,160,2013-04-29 00:55:00
9:15 PM,57.6,53.8,87,29.87,10.0,SSE,4.6,-,N/A,Rain,Light Rain,160,2013-04-29 01:15:00
9:35 PM,57.2,53.4,87,29.87,10.0,SSE,4.6,-,N/A,,Overcast,150,2013-04-29 01:35:00
9:55 PM,56.5,52.9,88,29.88,10.0,SSE,4.6,-,N/A,,Overcast,160,2013-04-29 01:55:00
10:15 PM,56.3,52.9,88,29.89,10.0,SSE,3.5,-,N/A,,Overcast,160,2013-04-29 02:15:00
10:35 PM,56.1,52.7,88,29.89,10.0,South,4.6,-,N/A,,Overcast,170,2013-04-29 02:35:00
10:55 PM,55.9,52.7,89,29.90,10.0,South,4.6,-,N/A,,Overcast,170,2013-04-29 02:55:00
11:15 PM,56.3,52.9,88,29.88,7.0,South,5.8,-,N/A,,Overcast,170,2013-04-29 03:15:00
11:35 PM,56.3,53.1,89,29.89,5.0,South,8.1,-,N/A,,Overcast,180,2013-04-29 03:35:00
11:55 PM,56.5,53.2,89,29.88,7.0,South,9.2,-,N/A,,Overcast,180,2013-04-29 03:55:00